createdAt,value
2019-04-06T00:01:25.539Z,39.47
2019-04-06T00:03:57.947Z,45.97
2019-04-06T00:06:29.297Z,35.77
2019-04-06T00:09:00.447Z,39.27
2019-04-06T00:11:34.495Z,29.90
2019-04-06T00:14:05.776Z,35.10
2019-04-06T00:16:39.170Z,41.03
2019-04-06T00:19:11.717Z,38.93
2019-04-06T00:21:42.624Z,49.73
2019-04-06T00:24:15.291Z,63.93
2019-04-06T00:26:46.753Z,67.90
2019-04-06T00:29:16.774Z,62.83
2019-04-06T00:31:48.266Z,68.13
2019-04-06T00:34:18.444Z,66.57
2019-04-06T00:36:53.162Z,78.30
2019-04-06T00:39:25.531Z,121.27
2019-04-06T00:41:57.252Z,115.63
2019-04-06T00:44:29.997Z,87.57
2019-04-06T00:47:00.016Z,69.83
2019-04-06T00:49:30.010Z,52.33
2019-04-06T00:54:36.820Z,42.63
2019-04-06T00:57:07.853Z,44.27
2019-04-06T00:59:37.795Z,45.83
2019-04-06T01:02:09.505Z,41.07
2019-04-06T01:04:41.229Z,43.33
2019-04-06T01:07:11.310Z,38.63
2019-04-06T01:09:45.976Z,40.08
2019-04-06T01:12:19.220Z,34.50
2019-04-06T01:14:49.409Z,33.83
2019-04-06T01:17:21.215Z,31.63
2019-04-06T01:19:52.521Z,38.50
2019-04-06T01:22:23.914Z,38.10
2019-04-06T01:24:56.439Z,34.70
2019-04-06T01:27:27.828Z,35.27
2019-04-06T01:30:00.227Z,31.93
2019-04-06T01:32:30.174Z,33.97
2019-04-06T01:35:01.159Z,33.37
2019-04-06T01:37:30.542Z,36.10
2019-04-06T01:40:01.600Z,37.27
2019-04-06T01:42:32.741Z,36.40
2019-04-06T01:45:06.038Z,35.57
2019-04-06T01:47:37.370Z,35.70
2019-04-06T01:50:08.659Z,31.07
2019-04-06T01:52:39.756Z,34.57
2019-04-06T01:55:09.327Z,35.43
2019-04-06T02:00:11.899Z,39.33
2019-04-06T02:02:44.542Z,37.30
2019-04-06T02:05:15.824Z,40.13
2019-04-06T02:07:48.170Z,41.27
2019-04-06T02:10:20.916Z,41.87
2019-04-06T02:12:52.251Z,38.40
2019-04-06T02:15:24.028Z,40.23
2019-04-06T02:17:55.122Z,41.73
2019-04-06T02:20:24.381Z,34.60
2019-04-06T02:22:57.257Z,40.90
2019-04-06T02:25:28.693Z,44.70
2019-04-06T02:28:01.922Z,39.30
2019-04-06T02:30:34.610Z,38.13
2019-04-06T02:33:25.017Z,40.60
2019-04-06T02:35:56.583Z,39.07
2019-04-06T02:41:04.112Z,41.13
2019-04-06T02:43:37.248Z,39.60
2019-04-06T02:46:07.204Z,41.20
2019-04-06T02:48:40.547Z,44.30
2019-04-06T02:51:11.979Z,44.13
2019-04-06T02:53:43.358Z,43.27
2019-04-06T02:56:14.962Z,43.47
2019-04-06T02:58:44.973Z,41.53
2019-04-06T03:01:16.188Z,45.07
2019-04-06T03:03:46.393Z,41.53
2019-04-06T03:06:17.775Z,40.75
2019-04-06T03:08:50.556Z,46.33
2019-04-06T03:11:23.911Z,42.07
2019-04-06T03:13:53.953Z,46.13
2019-04-06T03:16:27.460Z,47.73
2019-04-06T03:19:02.152Z,59.83
2019-04-06T03:21:32.101Z,88.20
2019-04-06T03:24:04.533Z,70.40
2019-04-06T03:26:37.614Z,81.57
2019-04-06T03:29:07.820Z,68.87
2019-04-06T03:31:39.403Z,80.23
2019-04-06T03:34:13.016Z,77.33
2019-04-06T03:36:46.691Z,78.40
2019-04-06T03:39:17.829Z,73.75
2019-04-06T03:41:51.271Z,73.40
2019-04-06T03:44:26.676Z,78.07
2019-04-06T03:46:59.457Z,73.60
2019-04-06T03:49:30.669Z,74.53
2019-04-06T03:52:01.799Z,75.17
2019-04-06T03:54:34.915Z,67.90
2019-04-06T03:57:15.006Z,68.17
2019-04-06T03:59:43.030Z,63.83
2019-04-06T04:02:14.362Z,65.83
2019-04-06T04:04:45.588Z,64.70
2019-04-06T04:07:16.909Z,63.13
2019-04-06T04:09:47.976Z,67.00
2019-04-06T04:12:24.245Z,68.60
2019-04-06T04:14:54.123Z,65.00
2019-04-06T04:17:24.151Z,66.47
2019-04-06T04:19:54.334Z,88.40
2019-04-06T04:22:25.638Z,65.33
2019-04-06T04:25:05.577Z,80.70
2019-04-06T04:27:36.837Z,90.50
2019-04-06T04:30:10.628Z,83.47
2019-04-06T04:32:41.596Z,70.93
2019-04-06T04:35:14.136Z,72.23
2019-04-06T04:37:46.726Z,67.73
2019-04-06T04:40:17.911Z,71.90
2019-04-06T04:42:47.870Z,65.63
2019-04-06T04:45:17.755Z,78.47
2019-04-06T04:47:50.337Z,79.60
2019-04-06T04:50:21.859Z,71.20
2019-04-06T04:52:58.514Z,91.10
2019-04-06T04:55:30.193Z,90.50
2019-04-06T04:58:02.653Z,85.93
2019-04-06T05:00:36.903Z,74.10
2019-04-06T05:03:11.629Z,84.73
2019-04-06T05:05:42.705Z,78.17
2019-04-06T05:08:14.122Z,79.85
2019-04-06T05:10:45.547Z,59.90
2019-04-06T05:13:16.909Z,54.93
2019-04-06T05:16:14.555Z,50.87
2019-04-06T05:18:47.685Z,57.70
2019-04-06T05:21:23.286Z,54.93
2019-04-06T05:23:55.303Z,61.00
2019-04-06T05:26:37.152Z,48.47
2019-04-06T05:29:00.659Z,49.50
2019-04-06T05:31:30.743Z,48.17
2019-04-06T05:34:06.595Z,61.57
2019-04-06T05:36:39.782Z,60.17
2019-04-06T05:39:09.742Z,64.00
2019-04-06T05:41:42.795Z,57.03
2019-04-06T05:44:38.149Z,51.73
2019-04-06T05:47:12.811Z,55.93
2019-04-06T05:49:43.998Z,55.73
2019-04-06T05:52:15.469Z,51.67
2019-04-06T05:54:48.747Z,51.07
2019-04-06T05:57:20.578Z,55.03
2019-04-06T05:59:53.489Z,49.27
2019-04-06T06:02:24.682Z,55.37
2019-04-06T06:04:55.446Z,52.60
2019-04-06T06:07:26.713Z,56.77
2019-04-06T06:09:58.662Z,49.33
2019-04-06T06:12:29.695Z,56.43
2019-04-06T06:15:01.558Z,54.37
2019-04-06T06:17:33.678Z,50.40
2019-04-06T06:20:05.041Z,48.40
2019-04-06T06:22:36.712Z,46.57
2019-04-06T06:25:10.665Z,49.47
2019-04-06T06:27:40.892Z,49.53
2019-04-06T06:30:12.343Z,43.30
2019-04-06T06:32:46.369Z,44.00
2019-04-06T06:35:17.742Z,44.37
2019-04-06T06:37:47.860Z,50.47
2019-04-06T06:40:18.298Z,46.00
2019-04-06T06:42:49.482Z,46.23
2019-04-06T06:45:20.678Z,50.10
2019-04-06T06:47:52.140Z,56.60
2019-04-06T06:50:23.310Z,59.60
2019-04-06T06:52:56.194Z,48.80
2019-04-06T06:55:27.220Z,46.37
2019-04-06T06:58:25.074Z,48.27
2019-04-06T07:00:49.927Z,50.07
2019-04-06T07:03:21.420Z,44.97
2019-04-06T07:05:53.277Z,47.60
2019-04-06T07:08:26.962Z,49.57
2019-04-06T07:11:00.185Z,44.07
2019-04-06T07:13:32.211Z,44.13
2019-04-06T07:16:04.939Z,43.63
2019-04-06T07:18:38.007Z,43.40
2019-04-06T07:21:10.159Z,46.23
2019-04-06T07:23:40.222Z,46.93
2019-04-06T07:26:13.006Z,44.57
2019-04-06T07:28:43.235Z,44.40
2019-04-06T07:33:51.137Z,50.70
2019-04-06T07:36:21.304Z,47.63
2019-04-06T07:38:53.961Z,43.77
2019-04-06T07:41:25.279Z,48.63
2019-04-06T07:44:00.628Z,45.13
2019-04-06T07:46:32.996Z,57.27
2019-04-06T07:49:09.551Z,52.97
2019-04-06T07:51:41.434Z,48.20
2019-04-06T07:56:50.283Z,43.00
2019-04-06T07:59:20.319Z,42.17
2019-04-06T08:01:53.492Z,41.93
2019-04-06T08:04:27.050Z,43.33
2019-04-06T08:07:00.492Z,45.00
2019-04-06T08:09:52.196Z,48.50
2019-04-06T08:12:25.043Z,44.20
2019-04-06T08:14:57.535Z,51.10
2019-04-06T08:17:27.878Z,44.37
2019-04-06T08:20:02.305Z,49.07
2019-04-06T08:22:35.593Z,43.47
2019-04-06T08:25:10.297Z,42.90
2019-04-06T08:27:41.425Z,50.07
2019-04-06T08:30:13.722Z,45.63
2019-04-06T08:32:46.452Z,38.80
2019-04-06T08:35:25.224Z,44.95
2019-04-06T08:37:50.729Z,92.07
2019-04-06T08:40:24.387Z,40.08
2019-04-06T08:42:56.194Z,49.50
2019-04-06T08:45:27.604Z,44.80
2019-04-06T08:47:57.710Z,43.60
2019-04-06T08:50:29.169Z,46.40
2019-04-06T08:53:00.402Z,42.90
2019-04-06T08:55:30.537Z,46.27
2019-04-06T08:58:04.068Z,45.57
2019-04-06T09:00:37.003Z,41.50
2019-04-06T09:03:08.317Z,40.40
2019-04-06T09:05:40.339Z,43.77
2019-04-06T09:08:15.435Z,44.40
2019-04-06T09:10:46.632Z,42.67
2019-04-06T09:13:17.828Z,38.83
2019-04-06T09:15:51.175Z,41.03
2019-04-06T09:18:22.326Z,39.97
2019-04-06T09:20:58.406Z,45.70
2019-04-06T09:23:31.065Z,45.87
2019-04-06T09:26:02.175Z,38.93
2019-04-06T09:28:34.279Z,42.20
2019-04-06T09:31:05.353Z,43.63
2019-04-06T09:33:37.557Z,33.03
2019-04-06T09:36:10.205Z,40.77
2019-04-06T09:38:41.433Z,40.60
2019-04-06T09:41:12.869Z,36.40
2019-04-06T09:43:44.055Z,42.30
2019-04-06T09:46:15.661Z,50.48
2019-04-06T09:48:58.299Z,43.10
2019-04-06T09:51:48.574Z,46.07
2019-04-06T09:54:27.087Z,36.10
2019-04-06T09:57:02.480Z,40.43
2019-04-06T09:59:38.031Z,39.03
2019-04-06T10:02:27.805Z,40.53
2019-04-06T10:04:58.329Z,40.00
2019-04-06T10:07:37.241Z,36.43
2019-04-06T10:10:10.275Z,36.47
2019-04-06T10:12:51.603Z,47.30
2019-04-06T10:15:41.412Z,39.87
2019-04-06T10:49:13.835Z,44.73
2019-04-06T10:51:47.198Z,41.80
2019-04-06T10:54:32.229Z,36.87
2019-04-06T10:57:06.172Z,36.53
2019-04-06T10:59:38.760Z,41.50
2019-04-06T11:02:14.035Z,43.00
2019-04-06T11:04:54.586Z,38.93
2019-04-06T11:07:45.421Z,49.60
2019-04-06T11:10:24.152Z,47.23
2019-04-06T11:13:08.779Z,50.43
2019-04-06T11:16:00.221Z,46.63
2019-04-06T11:18:34.717Z,47.00
2019-04-06T11:21:18.080Z,59.60
2019-04-06T11:23:52.653Z,45.40
2019-04-06T11:26:40.668Z,44.03
2019-04-06T11:29:14.032Z,47.03
2019-04-06T11:31:49.593Z,53.27
2019-04-06T11:34:22.989Z,51.63
2019-04-06T11:36:57.007Z,50.30
2019-04-06T11:39:36.003Z,38.47
2019-04-06T11:42:13.663Z,44.03
2019-04-06T11:44:48.255Z,53.30
2019-04-06T11:47:27.437Z,45.67
2019-04-06T11:50:20.393Z,49.80
2019-04-06T11:52:55.707Z,46.40
2019-04-06T11:55:28.385Z,50.50
2019-04-06T11:58:06.728Z,43.60
2019-04-06T12:00:56.075Z,47.40
2019-04-06T12:03:37.363Z,37.77
2019-04-06T12:06:15.788Z,37.63
2019-04-06T12:08:50.354Z,37.40
2019-04-06T12:11:23.175Z,33.57
2019-04-06T12:13:57.876Z,36.70
2019-04-06T12:16:34.089Z,35.20
2019-04-06T12:19:26.275Z,43.47
2019-04-06T12:22:01.223Z,40.60
2019-04-06T12:24:37.710Z,38.13
2019-04-06T12:27:10.580Z,38.33
2019-04-06T12:29:50.848Z,40.27
2019-04-06T12:32:22.348Z,39.63
2019-04-06T12:35:07.443Z,32.93
2019-04-06T12:37:47.075Z,33.63
2019-04-06T12:40:21.310Z,35.20
2019-04-06T12:42:56.833Z,34.97
2019-04-06T12:45:44.912Z,28.73
2019-04-06T12:48:20.682Z,27.87
2019-04-06T12:51:15.172Z,23.60
2019-04-06T12:53:46.529Z,21.43
2019-04-06T12:56:21.848Z,24.30
2019-04-06T12:58:58.980Z,21.27
2019-04-06T13:01:41.254Z,14.83
2019-04-06T13:04:21.550Z,13.00
2019-04-06T13:06:54.460Z,12.00
2019-04-06T13:09:45.328Z,11.63
2019-04-06T13:12:37.038Z,14.90
2019-04-06T13:15:19.418Z,11.10
2019-04-06T13:17:52.741Z,22.93
2019-04-06T13:20:35.994Z,9.18
2019-04-06T13:23:15.508Z,6.20
2019-04-06T13:26:04.201Z,5.90
2019-04-06T13:28:53.769Z,7.07
2019-04-06T13:31:26.022Z,5.62
2019-04-06T13:34:16.998Z,10.23
2019-04-06T13:36:56.671Z,44.67
2019-04-06T13:39:32.439Z,15.33
2019-04-06T13:42:21.925Z,21.73
2019-04-06T13:47:57.799Z,23.85
2019-04-06T13:50:34.070Z,10.20
2019-04-06T13:53:21.878Z,10.80
2019-04-06T13:55:56.517Z,9.80
2019-04-06T13:58:38.322Z,6.37
2019-04-06T14:01:25.364Z,28.37
2019-04-06T14:03:59.319Z,28.63
2019-04-06T14:06:38.393Z,10.50
2019-04-06T14:09:30.422Z,10.17
2019-04-06T14:12:04.630Z,18.10
2019-04-06T14:14:47.721Z,10.27
2019-04-06T14:17:29.354Z,12.17
2019-04-06T14:20:16.210Z,8.80
2019-04-06T14:22:48.464Z,4.90
2019-04-06T14:25:24.291Z,11.03
2019-04-06T14:28:00.017Z,6.10
2019-04-06T14:30:38.350Z,5.10
2019-04-06T14:33:19.628Z,3.93
2019-04-06T14:35:54.228Z,16.40
2019-04-06T14:38:28.666Z,9.87
2019-04-06T14:41:03.373Z,8.87
2019-04-06T14:43:44.104Z,6.90
2019-04-06T14:46:18.548Z,11.20
2019-04-06T14:48:51.516Z,13.47
2019-04-06T14:51:25.893Z,13.95
2019-04-06T14:54:17.101Z,14.43
2019-04-06T14:56:50.467Z,6.03
2019-04-06T14:59:24.670Z,7.77
2019-04-06T15:02:00.867Z,8.93
2019-04-06T15:04:42.524Z,16.40
2019-04-06T15:07:15.841Z,12.10
2019-04-06T15:09:59.730Z,12.93
2019-04-06T15:12:47.103Z,8.20
2019-04-06T15:15:36.382Z,24.18
2019-04-06T15:18:14.874Z,21.10
2019-04-06T15:21:02.990Z,18.20
2019-04-06T15:23:52.778Z,9.07
2019-04-06T15:26:41.923Z,6.85
2019-04-06T15:29:13.915Z,8.58
2019-04-06T15:31:50.381Z,8.03
2019-04-06T15:34:29.548Z,15.03
2019-04-06T15:37:06.694Z,9.17
2019-04-06T15:39:43.960Z,8.23
2019-04-06T15:42:22.221Z,6.43
2019-04-06T15:45:00.849Z,11.47
2019-04-06T15:47:42.507Z,10.37
2019-04-06T15:50:20.458Z,49.57
2019-04-06T15:55:40.705Z,6.47
2019-04-06T15:58:17.770Z,7.30
2019-04-06T16:01:02.934Z,10.83
2019-04-06T16:03:44.904Z,22.63
2019-04-06T16:06:25.311Z,21.93
2019-04-06T16:09:12.065Z,44.07
2019-04-06T16:14:22.792Z,35.23
2019-04-06T16:17:09.830Z,83.70
2019-04-06T16:20:00.747Z,146.83
2019-04-06T16:22:39.384Z,92.07
2019-04-06T16:25:23.564Z,72.97
2019-04-06T16:30:34.430Z,34.20
2019-04-06T16:33:10.541Z,38.63
2019-04-06T16:35:46.148Z,59.07
2019-04-06T16:38:33.215Z,124.10
2019-04-06T16:41:18.653Z,75.50
2019-04-06T16:44:03.459Z,36.27
2019-04-06T16:46:42.523Z,35.90
2019-04-06T16:49:19.210Z,46.03
2019-04-06T16:51:57.790Z,97.63
2019-04-06T16:54:41.577Z,24.03
2019-04-06T16:57:22.190Z,35.63
2019-04-06T17:00:02.505Z,63.67
2019-04-06T17:02:38.211Z,48.03
2019-04-06T17:05:11.303Z,178.83
2019-04-06T17:07:46.443Z,58.03
2019-04-06T17:10:24.042Z,30.13
2019-04-06T17:13:00.597Z,38.73
2019-04-06T17:15:32.882Z,30.53
2019-04-06T17:18:06.873Z,45.80
2019-04-06T17:20:39.182Z,34.97
2019-04-06T17:23:14.247Z,32.50
2019-04-06T17:25:50.998Z,53.77
2019-04-06T17:31:11.936Z,73.07
2019-04-06T17:33:54.863Z,61.33
2019-04-06T17:36:31.092Z,42.00
2019-04-06T17:39:05.267Z,22.23
2019-04-06T17:44:28.920Z,37.47
2019-04-06T17:47:09.212Z,30.97
2019-04-06T17:49:47.521Z,33.80
2019-04-06T17:52:24.678Z,70.13
2019-04-06T17:55:13.449Z,91.23
2019-04-06T17:57:51.269Z,75.63
2019-04-06T18:00:40.661Z,61.90
2019-04-06T18:03:49.142Z,45.80
2019-04-06T18:06:34.931Z,43.30
2019-04-06T18:09:11.186Z,52.97
2019-04-06T18:11:51.833Z,130.27
2019-04-06T18:14:23.704Z,143.47
2019-04-06T18:16:58.316Z,206.27
2019-04-06T18:19:31.366Z,133.57
2019-04-06T18:22:09.235Z,60.00
2019-04-06T18:24:41.567Z,45.10
2019-04-06T18:27:15.153Z,59.07
2019-04-06T18:29:46.554Z,60.10
2019-04-06T18:32:25.306Z,47.77
2019-04-06T18:34:56.362Z,51.57
2019-04-06T18:37:29.635Z,49.63
2019-04-06T18:40:02.677Z,57.43
2019-04-06T18:42:35.245Z,66.93
2019-04-06T18:45:10.017Z,59.70
2019-04-06T18:47:42.614Z,58.63
2019-04-06T18:50:15.961Z,64.10
2019-04-06T18:52:47.739Z,42.97
2019-04-06T18:55:20.313Z,38.40
2019-04-06T18:57:52.719Z,42.93
2019-04-06T19:00:24.501Z,54.43
2019-04-06T19:02:56.066Z,56.50
2019-04-06T19:05:26.868Z,53.30
2019-04-06T19:07:56.738Z,89.40
2019-04-06T19:10:28.001Z,96.17
2019-04-06T19:12:59.565Z,90.47
2019-04-06T19:15:29.559Z,82.03
2019-04-06T19:18:02.793Z,79.27
2019-04-06T19:20:33.454Z,61.30
2019-04-06T19:23:03.063Z,56.17
2019-04-06T19:25:32.847Z,163.63
2019-04-06T19:28:07.654Z,186.73
2019-04-06T19:30:37.183Z,82.83
2019-04-06T19:33:08.405Z,67.67
2019-04-06T19:35:37.490Z,68.37
2019-04-06T19:38:06.673Z,80.27
2019-04-06T19:40:37.174Z,72.43
2019-04-06T19:43:07.691Z,73.10
2019-04-06T19:45:37.498Z,68.23
2019-04-06T19:48:09.595Z,56.07
2019-04-06T19:50:43.858Z,61.53
2019-04-06T19:53:15.799Z,60.97
2019-04-06T19:55:45.898Z,64.33
2019-04-06T19:58:16.858Z,52.90
2019-04-06T20:00:50.794Z,33.40
2019-04-06T20:03:20.444Z,26.07
2019-04-06T20:05:50.425Z,24.90
2019-04-06T20:08:20.175Z,24.63
2019-04-06T20:10:52.063Z,43.03
2019-04-06T20:13:28.162Z,60.67
2019-04-06T20:15:56.614Z,108.53
2019-04-06T20:18:26.597Z,106.60
2019-04-06T20:20:56.269Z,89.77
2019-04-06T20:23:27.016Z,104.67
2019-04-06T20:25:56.946Z,151.47
2019-04-06T20:28:26.929Z,96.53
2019-04-06T20:31:01.180Z,83.00
2019-04-06T20:33:32.454Z,113.27
2019-04-06T20:36:03.718Z,81.10
2019-04-06T20:38:33.124Z,62.10
2019-04-06T20:41:06.735Z,58.40
2019-04-06T20:43:40.402Z,55.67
2019-04-06T20:46:15.283Z,58.00
2019-04-06T20:48:44.853Z,52.07
2019-04-06T20:51:16.340Z,48.50
2019-04-06T20:53:47.776Z,54.30
2019-04-06T20:56:17.382Z,55.07
2019-04-06T20:58:48.340Z,49.87
2019-04-06T21:01:17.518Z,31.37
2019-04-06T21:03:59.670Z,25.33
2019-04-06T21:06:24.559Z,15.20
2019-04-06T21:09:03.230Z,12.54
2019-04-06T21:11:32.742Z,13.80
2019-04-06T21:14:05.462Z,20.43
2019-04-06T21:16:37.876Z,62.40
2019-04-06T21:19:08.142Z,115.60
2019-04-06T21:21:44.453Z,77.80
2019-04-06T21:24:19.082Z,33.17
2019-04-06T21:26:53.190Z,26.33
2019-04-06T21:29:24.284Z,23.37
2019-04-06T21:34:50.443Z,18.57
2019-04-06T21:37:22.993Z,20.10
2019-04-06T21:39:57.852Z,16.87
2019-04-06T21:42:33.040Z,20.37
2019-04-06T21:45:04.088Z,24.47
2019-04-06T21:47:35.409Z,24.57
2019-04-06T21:50:12.664Z,21.50
2019-04-06T21:52:42.639Z,16.87
2019-04-06T21:55:15.040Z,21.53
2019-04-06T21:57:48.181Z,20.13
2019-04-06T22:00:21.222Z,17.87
2019-04-06T22:02:52.303Z,15.93
2019-04-06T22:05:22.261Z,21.63
2019-04-06T22:07:54.638Z,20.33
2019-04-06T22:10:28.717Z,21.93
2019-04-06T22:12:58.943Z,25.50
2019-04-06T22:15:32.405Z,30.13
2019-04-06T22:18:03.544Z,38.77
2019-04-06T22:20:38.822Z,41.57
2019-04-06T22:23:12.094Z,57.37
2019-04-06T22:25:43.570Z,47.13
2019-04-06T22:28:16.500Z,45.13
2019-04-06T22:30:49.874Z,41.40
2019-04-06T22:33:22.435Z,32.77
2019-04-06T22:35:54.351Z,33.27
2019-04-06T22:38:28.124Z,32.53
2019-04-06T22:40:58.506Z,40.17
2019-04-06T22:43:33.455Z,41.07
2019-04-06T22:46:05.008Z,49.17
2019-04-06T22:48:36.216Z,49.47
2019-04-06T22:51:08.403Z,49.70
2019-04-06T22:53:39.715Z,74.50
2019-04-06T22:56:09.992Z,75.50
2019-04-06T22:58:40.053Z,77.17
2019-04-06T23:01:30.215Z,80.73
2019-04-06T23:04:07.600Z,80.50
2019-04-06T23:09:11.241Z,55.77
2019-04-06T23:11:44.795Z,41.37
2019-04-06T23:14:16.906Z,32.77
2019-04-06T23:16:49.380Z,21.77
2019-04-06T23:19:19.422Z,14.30
2019-04-06T23:21:51.510Z,18.43
2019-04-06T23:24:22.763Z,20.67
2019-04-06T23:26:55.541Z,19.20
2019-04-06T23:29:28.022Z,18.93
2019-04-06T23:31:58.698Z,18.97
2019-04-06T23:34:30.534Z,32.27
2019-04-06T23:37:03.445Z,33.20
2019-04-06T23:39:33.570Z,33.03
2019-04-06T23:42:07.294Z,26.27
2019-04-06T23:44:43.534Z,35.47
2019-04-06T23:47:20.899Z,26.80
2019-04-06T23:49:57.440Z,29.17
2019-04-06T23:52:27.463Z,29.00
2019-04-06T23:54:57.522Z,25.33
2019-04-06T23:57:26.938Z,23.77
2019-04-06T23:59:58.249Z,24.30
